Kezdőlap
METAR-TAF:

METAR-TAF

Repülőterek :

Qikiqtarjuaq, Nunavut, Kanada

földrajzi szélesség: 67-33N, földrajzi hosszúság: 064-02W, magasság: 6 m

Jelenlegi meteorológiai megfigyelések

A jelentés 12 perccel ezelõtt készült, 10:39 UTC
Különbözõ irányokból fújó szél 2 kt
Hőmérséklet -19°C
Páratartalom 84%
Légköri nyomás 1000 hPa
Látótávolság: 14.5 km
Szórványos felhőzet 1300 lábon
Borult 2100 lábon

METAR: CYVM 131039Z AUTO VRB02KT 9SM SCT013 OVC021 M19/M21 A2952 RMK SLP998

Idő: 05:51 (10:51 UTC)

Előrejelzés

A jelentés 28 perccel ezelõtt készült, 10:23 UTC
Az előrejelzés 13-én 10 óra UTC és 13-én 19 óra UTC között érvényes
Különbözõ irányokból fújó szél 3 kt
Látótávolság: 10 km
Kevés felhő 1500 lábon
13-én 10 óra UTC és 13-én 13 óra UTC között ideiglenes
Szakadozott felhőzet 1500 lábon

TAF: CYVM 131023Z 1310/1319 VRB03KT P6SM FEW015 TEMPO 1310/1313 BKN015 RMK FCST BASED ON AUTO OBS. NXT FCST BY 131300Z

Meteorológiai megfigyelések és előrejelzések több, mint 4000 repülőtéren (METAR és TAF jelentéseket).

A térképen piros és sárga pontok jelzik az elérhető meteorológiai állomásokat.

Mozgassa az egeret a pont fölött, hogy megjelenjen az állomás neve.

Azután kattintson az időjárási megfigyelések és előrejelzések megtekintéséhez.

A térkép megváltoztatása: kattintson a fekete keresztel jelölt zöld gombra ráközelítéshez, a vonallal jelölt zöld gombra távolításhoz, vagy a zöld nyilakra a szomszédos térképek eléréséhez.


METAR-TAF: